NCAR-RAP Real-Time Weather Data

Output produced by METARs form (19 November 2018  11:23 UTC)
found at http://weather.rap.ucar.edu/surface/
 
Conditions at: KGNV observed 19 November 2018  11:15 UTC
Temperature: 12.8°C (55°F)
Dewpoint: 12.2°C (54°F) [RH = 96%]
Pressure (altimeter): 30.15 inches Hg (1021.1 mb)
Winds: calm
Visibility: 7 miles (11 km)
Ceiling: 200 feet AGL
Clouds: broken clouds at 200 feet AGL
Present Weather: automated observation with no human augmentation;
there may or may not be significant weather present at this time
KGNV 191115Z AUTO 00000KT 7SM BKN002 13/12 A3015 RMK AO2 T01280122

Conditions at: KGNV observed 19 November 2018  10:53 UTC
Temperature: 12.8°C (55°F)
Dewpoint: 12.2°C (54°F) [RH = 96%]
Pressure (altimeter): 30.15 inches Hg (1021.1 mb)
[Sea-level pressure: 1020.7 mb]
Winds: calm
Visibility: 6 miles (10 km)
Ceiling: 100 feet AGL
Clouds: broken clouds at 100 feet AGL
Present Weather: BR  (mist)
KGNV 191053Z AUTO 00000KT 6SM BR BKN001 13/12 A3015 RMK AO2 SLP207 T01280122

Conditions at: KGNV observed 19 November 2018  10:49 UTC
Temperature: 13.0°C (55°F)
Dewpoint: 12.0°C (54°F) [RH = 94%]
Pressure (altimeter): 30.15 inches Hg (1021.1 mb)
Winds: from the NNW (330 degrees) at 3 MPH (3 knots; 1.6 m/s)
Visibility: 3 miles (5 km)
Ceiling: 100 feet AGL
Clouds: broken clouds at 100 feet AGL
Present Weather: BR  (mist)
KGNV 191049Z AUTO 33003KT 3SM BR BKN001 13/12 A3015 RMK AO2

Conditions at: KGNV observed 19 November 2018  10:37 UTC
Temperature: 13.3°C (56°F)
Dewpoint: 12.8°C (55°F) [RH = 97%]
Pressure (altimeter): 30.14 inches Hg (1020.7 mb)
Winds: calm
Visibility: 1.25 miles (2.01 km)
Ceiling: 100 feet AGL
Clouds: overcast cloud deck at 100 feet AGL
Present Weather: BR  (mist)
KGNV 191037Z AUTO 00000KT 1 1/4SM BR OVC001 13/13 A3014 RMK AO2 T01330128

Conditions at: KGNV observed 19 November 2018  10:09 UTC
Temperature: 13.3°C (56°F)
Dewpoint: 12.8°C (55°F) [RH = 97%]
Pressure (altimeter): 30.14 inches Hg (1020.7 mb)
Winds: from the NW (320 degrees) at 3 MPH (3 knots; 1.6 m/s)
Visibility: 0.50 miles (0.80 km)
Ceiling: 100 feet AGL
Clouds: overcast cloud deck at 100 feet AGL
Present Weather: FG  (fog)
KGNV 191009Z AUTO 32003KT 1/2SM FG OVC001 13/13 A3014 RMK AO2 T01330128

Conditions at: KGNV observed 19 November 2018  09:53 UTC
Temperature: 13.3°C (56°F)
Dewpoint: 12.8°C (55°F) [RH = 97%]
Pressure (altimeter): 30.14 inches Hg (1020.7 mb)
[Sea-level pressure: 1020.4 mb]
Winds: calm
Visibility: 0.50 miles (0.80 km)
Ceiling: 200 feet AGL
Clouds: overcast cloud deck at 200 feet AGL
Present Weather: FG  (fog)
KGNV 190953Z AUTO 00000KT 1/2SM FG OVC002 13/13 A3014 RMK AO2 SLP204 T01330128

Conditions at: KGNV observed 19 November 2018  08:53 UTC
Temperature: 14.4°C (58°F)
Dewpoint: 13.9°C (57°F) [RH = 97%]
Pressure (altimeter): 30.13 inches Hg (1020.4 mb)
[Sea-level pressure: 1019.9 mb]
Winds: calm
Visibility: 0.25 miles (0.40 km)
Ceiling: indefinite ceiling with vertical visibility of 200 feet AGL
Clouds: obscured sky
Present Weather: FG  (fog)
KGNV 190853Z AUTO 00000KT 1/4SM FG VV002 14/14 A3013 RMK AO2 SLP199 T01440139 58006

Conditions at: KGNV observed 19 November 2018  08:29 UTC
Temperature: 13.9°C (57°F)
Dewpoint: 13.9°C (57°F) [RH = 100%]
Pressure (altimeter): 30.13 inches Hg (1020.4 mb)
Winds: calm
Visibility: 0.25 miles (0.40 km)
Ceiling: indefinite ceiling with vertical visibility of 200 feet AGL
Clouds: obscured sky
Present Weather: FG  (fog)
KGNV 190829Z AUTO 00000KT 1/4SM FG VV002 14/14 A3013 RMK AO2 T01390139

Conditions at: KGNV observed 19 November 2018  08:13 UTC
Temperature: 13.9°C (57°F)
Dewpoint: 13.9°C (57°F) [RH = 100%]
Pressure (altimeter): 30.14 inches Hg (1020.7 mb)
Winds: calm
Visibility: 0.75 miles (1.21 km)
Ceiling: 100 feet AGL
Clouds: overcast cloud deck at 100 feet AGL
Present Weather: BR  (mist)
KGNV 190813Z AUTO 00000KT 3/4SM BR OVC001 14/14 A3014 RMK AO2 T01390139

Conditions at: KGNV observed 19 November 2018  08:03 UTC
Temperature: 13.9°C (57°F)
Dewpoint: 13.3°C (56°F) [RH = 96%]
Pressure (altimeter): 30.14 inches Hg (1020.7 mb)
Winds: from the WNW (300 degrees) at 3 MPH (3 knots; 1.6 m/s)
Visibility: 1.25 miles (2.01 km)
Ceiling: 200 feet AGL
Clouds: overcast cloud deck at 200 feet AGL
Present Weather: BR  (mist)
KGNV 190803Z AUTO 30003KT 1 1/4SM BR OVC002 14/13 A3014 RMK AO2 T01390133

Conditions at: KGNV observed 19 November 2018  07:53 UTC
Temperature: 13.9°C (57°F)
Dewpoint: 13.9°C (57°F) [RH = 100%]
Pressure (altimeter): 30.14 inches Hg (1020.7 mb)
[Sea-level pressure: 1020.3 mb]
Winds: calm
Visibility: 0.50 miles (0.80 km)
Ceiling: 200 feet AGL
Clouds: overcast cloud deck at 200 feet AGL
Present Weather: FG  (fog)
KGNV 190753Z AUTO 00000KT 1/2SM FG OVC002 14/14 A3014 RMK AO2 SLP203 T01390139

Conditions at: KGNV observed 19 November 2018  07:41 UTC
Temperature: 13.9°C (57°F)
Dewpoint: 13.9°C (57°F) [RH = 100%]
Pressure (altimeter): 30.14 inches Hg (1020.7 mb)
Winds: calm
Visibility: 0.25 miles (0.40 km)
Ceiling: indefinite ceiling with vertical visibility of 200 feet AGL
Clouds: obscured sky
Present Weather: FG  (fog)
KGNV 190741Z AUTO 00000KT 1/4SM FG VV002 14/14 A3014 RMK AO2 T01390139

Conditions at: KGNV observed 19 November 2018  07:33 UTC
Temperature: 14.4°C (58°F)
Dewpoint: 13.9°C (57°F) [RH = 97%]
Pressure (altimeter): 30.14 inches Hg (1020.7 mb)
Winds: calm
Visibility: 0.25 miles (0.40 km)
Ceiling: indefinite ceiling with vertical visibility of 100 feet AGL
Clouds: obscured sky
Present Weather: FG  (fog)
KGNV 190733Z AUTO 00000KT 1/4SM FG VV001 14/14 A3014 RMK AO2 T01440139

Conditions at: KGNV observed 19 November 2018  06:53 UTC
Temperature: 14.4°C (58°F)
Dewpoint: 13.9°C (57°F) [RH = 97%]
Pressure (altimeter): 30.14 inches Hg (1020.7 mb)
[Sea-level pressure: 1020.4 mb]
Winds: calm
Visibility: 0.25 miles (0.40 km)
Ceiling: indefinite ceiling with vertical visibility of 200 feet AGL
Clouds: obscured sky
Present Weather: FG  (fog)
KGNV 190653Z AUTO 00000KT 1/4SM FG VV002 14/14 A3014 RMK AO2 SLP204 T01440139

Conditions at: KGNV observed 19 November 2018  06:16 UTC
Temperature: 13.9°C (57°F)
Dewpoint: 13.3°C (56°F) [RH = 96%]
Pressure (altimeter): 30.14 inches Hg (1020.7 mb)
Winds: calm
Visibility: 0.25 miles (0.40 km)
Ceiling: indefinite ceiling with vertical visibility of 200 feet AGL
Clouds: obscured sky
Present Weather: FG  (fog)
KGNV 190616Z AUTO 00000KT 1/4SM FG VV002 14/13 A3014 RMK AO2 T01390133

Conditions at: KGNV observed 19 November 2018  05:53 UTC
Temperature: 14.4°C (58°F)
Dewpoint: 13.9°C (57°F) [RH = 97%]
Pressure (altimeter): 30.14 inches Hg (1020.7 mb)
[Sea-level pressure: 1020.5 mb]
Winds: calm
Visibility: 0.50 miles (0.80 km)
Ceiling: indefinite ceiling with vertical visibility of 100 feet AGL
Clouds: obscured sky
Present Weather: FG  (fog)
KGNV 190553Z AUTO 00000KT 1/2SM FG VV001 14/14 A3014 RMK AO2 SLP205 T01440139 10183 20133 58008

Conditions at: KGNV observed 19 November 2018  05:42 UTC
Temperature: 13.3°C (56°F)
Dewpoint: 12.8°C (55°F) [RH = 97%]
Pressure (altimeter): 30.15 inches Hg (1021.1 mb)
Winds: from the WNW (290 degrees) at 3 MPH (3 knots; 1.6 m/s)
Visibility: 0.75 miles (1.21 km)
Ceiling: indefinite ceiling with vertical visibility of 100 feet AGL
Clouds: obscured sky
Present Weather: BR  (mist)
KGNV 190542Z AUTO 29003KT 3/4SM BR VV001 13/13 A3015 RMK AO2 VIS 1/2V4 T01330128

Conditions at: KGNV observed 19 November 2018  05:39 UTC
Temperature: 13.3°C (56°F)
Dewpoint: 12.8°C (55°F) [RH = 97%]
Pressure (altimeter): 30.15 inches Hg (1021.1 mb)
Winds: calm
Visibility: 1.50 miles (2.41 km)
Ceiling: 200 feet AGL
Clouds: overcast cloud deck at 200 feet AGL
Present Weather: BR  (mist)
KGNV 190539Z AUTO 00000KT 1 1/2SM BR OVC002 13/13 A3015 RMK AO2 VIS 1/2V4 T01330128

Conditions at: KGNV observed 19 November 2018  05:21 UTC
Temperature: 13.3°C (56°F)
Dewpoint: 12.2°C (54°F) [RH = 93%]
Pressure (altimeter): 30.15 inches Hg (1021.1 mb)
Winds: calm
Visibility: 10 or more miles (16+ km)
Ceiling: 200 feet AGL
Clouds: broken clouds at 200 feet AGL
Present Weather: automated observation with no human augmentation;
there may or may not be significant weather present at this time
KGNV 190521Z AUTO 00000KT 10SM BKN002 13/12 A3015 RMK AO2 T01330122

Conditions at: KGNV observed 19 November 2018  05:09 UTC
Temperature: 13.9°C (57°F)
Dewpoint: 12.8°C (55°F) [RH = 93%]
Pressure (altimeter): 30.15 inches Hg (1021.1 mb)
Winds: calm
Visibility: 10 or more miles (16+ km)
Ceiling: at least 12,000 feet AGL
Clouds: scattered clouds at 300 feet AGL
Present Weather: automated observation with no human augmentation;
there may or may not be significant weather present at this time
KGNV 190509Z AUTO 00000KT 10SM SCT003 14/13 A3015 RMK AO2 T01390128

Conditions at: KGNV observed 19 November 2018  04:53 UTC
Temperature: 13.9°C (57°F)
Dewpoint: 12.8°C (55°F) [RH = 93%]
Pressure (altimeter): 30.15 inches Hg (1021.1 mb)
[Sea-level pressure: 1021.0 mb]
Winds: calm
Visibility: 10 or more miles (16+ km)
Ceiling: at least 12,000 feet AGL
Clouds: sky clear below 12,000 feet AGL
Present Weather: automated observation with no human augmentation;
there may or may not be significant weather present at this time
KGNV 190453Z AUTO 00000KT 10SM CLR 14/13 A3015 RMK AO2 SLP210 T01390128 402610094

Conditions at: KGNV observed 19 November 2018  03:53 UTC
Temperature: 13.9°C (57°F)
Dewpoint: 13.3°C (56°F) [RH = 96%]
Pressure (altimeter): 30.17 inches Hg (1021.8 mb)
[Sea-level pressure: 1021.4 mb]
Winds: calm
Visibility: 10 or more miles (16+ km)
Ceiling: at least 12,000 feet AGL
Clouds: sky clear below 12,000 feet AGL
Present Weather: automated observation with no human augmentation;
there may or may not be significant weather present at this time
KGNV 190353Z AUTO 00000KT 10SM CLR 14/13 A3017 RMK AO2 SLP214 T01390133

Conditions at: KGNV observed 19 November 2018  02:53 UTC
Temperature: 15.6°C (60°F)
Dewpoint: 14.4°C (58°F) [RH = 93%]
Pressure (altimeter): 30.17 inches Hg (1021.8 mb)
[Sea-level pressure: 1021.4 mb]
Winds: calm
Visibility: 10 or more miles (16+ km)
Ceiling: at least 12,000 feet AGL
Clouds: sky clear below 12,000 feet AGL
Present Weather: no significant weather observed at this time
KGNV 190253Z 00000KT 10SM CLR 16/14 A3017 RMK AO2 SLP214 T01560144 51005

Conditions at: KGNV observed 19 November 2018  01:53 UTC
Temperature: 17.2°C (63°F)
Dewpoint: 15.6°C (60°F) [RH = 90%]
Pressure (altimeter): 30.17 inches Hg (1021.8 mb)
[Sea-level pressure: 1021.4 mb]
Winds: calm
Visibility: 10 or more miles (16+ km)
Ceiling: at least 12,000 feet AGL
Clouds: sky clear below 12,000 feet AGL
Present Weather: no significant weather observed at this time
KGNV 190153Z 00000KT 10SM CLR 17/16 A3017 RMK AO2 SLP214 T01720156

Conditions at: KGNV observed 19 November 2018  00:53 UTC
Temperature: 16.7°C (62°F)
Dewpoint: 14.4°C (58°F) [RH = 86%]
Pressure (altimeter): 30.17 inches Hg (1021.8 mb)
[Sea-level pressure: 1021.4 mb]
Winds: from the NE (50 degrees) at 7 MPH (6 knots; 3.1 m/s)
Visibility: 10 or more miles (16+ km)
Ceiling: at least 12,000 feet AGL
Clouds: few clouds at 7500 feet AGL
Present Weather: no significant weather observed at this time
KGNV 190053Z 05006KT 10SM FEW075 17/14 A3017 RMK AO2 SLP214 T01670144

Conditions at: KGNV observed 18 November 2018  23:53 UTC
Temperature: 17.2°C (63°F)
Dewpoint: 15.6°C (60°F) [RH = 90%]
Pressure (altimeter): 30.15 inches Hg (1021.1 mb)
[Sea-level pressure: 1020.9 mb]
Winds: calm
Visibility: 10 or more miles (16+ km)
Ceiling: at least 12,000 feet AGL
Clouds: sky clear below 12,000 feet AGL
Present Weather: no significant weather observed at this time
KGNV 182353Z 00000KT 10SM CLR 17/16 A3015 RMK AO2 SLP209 T01720156 10261 20172 53007

Conditions at: KGNV observed 18 November 2018  22:53 UTC
Temperature: 18.9°C (66°F)
Dewpoint: 15.6°C (60°F) [RH = 81%]
Pressure (altimeter): 30.13 inches Hg (1020.4 mb)
[Sea-level pressure: 1020.2 mb]
Winds: calm
Visibility: 10 or more miles (16+ km)
Ceiling: at least 12,000 feet AGL
Clouds: sky clear below 12,000 feet AGL
Present Weather: no significant weather observed at this time
KGNV 182253Z 00000KT 10SM CLR 19/16 A3013 RMK AO2 SLP202 T01890156

Conditions at: KGNV observed 18 November 2018  21:53 UTC
Temperature: 23.9°C (75°F)
Dewpoint: 14.4°C (58°F) [RH = 55%]
Pressure (altimeter): 30.13 inches Hg (1020.4 mb)
[Sea-level pressure: 1020.2 mb]
Winds: calm
Visibility: 10 or more miles (16+ km)
Ceiling: at least 12,000 feet AGL
Clouds: sky clear below 12,000 feet AGL
Present Weather: no significant weather observed at this time
KGNV 182153Z 00000KT 10SM CLR 24/14 A3013 RMK AO2 SLP202 T02390144

Conditions at: KGNV observed 18 November 2018  20:53 UTC
Temperature: 25.0°C (77°F)
Dewpoint: 14.4°C (58°F) [RH = 52%]
Pressure (altimeter): 30.13 inches Hg (1020.4 mb)
[Sea-level pressure: 1020.1 mb]
Winds: from the E (80 degrees) at 5 MPH (4 knots; 2.1 m/s)
Visibility: 10 or more miles (16+ km)
Ceiling: at least 12,000 feet AGL
Clouds: scattered clouds at 5500 feet AGL
Present Weather: no significant weather observed at this time
KGNV 182053Z 08004KT 10SM SCT055 25/14 A3013 RMK AO2 SLP201 T02500144 56017

Conditions at: KGNV observed 18 November 2018  19:53 UTC
Temperature: 24.4°C (76°F)
Dewpoint: 14.4°C (58°F) [RH = 54%]
Pressure (altimeter): 30.14 inches Hg (1020.7 mb)
[Sea-level pressure: 1020.6 mb]
Winds: from the NW (320 degrees) at 6 MPH (5 knots; 2.6 m/s)
Visibility: 10 or more miles (16+ km)
Ceiling: 5000 feet AGL
Clouds: scattered clouds at 4100 feet AGL
broken clouds at 5000 feet AGL
Present Weather: no significant weather observed at this time
KGNV 181953Z 32005KT 10SM SCT041 BKN050 24/14 A3014 RMK AO2 SLP206 T02440144

Conditions at: KGNV observed 18 November 2018  18:53 UTC
Temperature: 26.1°C (79°F)
Dewpoint: 15.0°C (59°F) [RH = 50%]
Pressure (altimeter): 30.15 inches Hg (1021.1 mb)
[Sea-level pressure: 1021.0 mb]
Winds: calm
Visibility: 10 or more miles (16+ km)
Ceiling: at least 12,000 feet AGL
Clouds: scattered clouds at 5500 feet AGL
Present Weather: no significant weather observed at this time
KGNV 181853Z 00000KT 10SM SCT055 26/15 A3015 RMK AO2 SLP210 T02610150

Conditions at: KGNV observed 18 November 2018  17:53 UTC
Temperature: 23.9°C (75°F)
Dewpoint: 14.4°C (58°F) [RH = 55%]
Pressure (altimeter): 30.18 inches Hg (1022.1 mb)
[Sea-level pressure: 1021.9 mb]
Winds: calm
Visibility: 10 or more miles (16+ km)
Ceiling: at least 12,000 feet AGL
Clouds: few clouds at 5500 feet AGL
Present Weather: no significant weather observed at this time
KGNV 181753Z 00000KT 10SM FEW055 24/14 A3018 RMK AO2 SLP219 T02390144 10250 20122 58020

Conditions at: KGNV observed 18 November 2018  16:53 UTC
Temperature: 23.3°C (74°F)
Dewpoint: 15.0°C (59°F) [RH = 60%]
Pressure (altimeter): 30.21 inches Hg (1023.1 mb)
[Sea-level pressure: 1023.0 mb]
Winds: from the WNW (290 degrees) at 3 MPH (3 knots; 1.6 m/s)
Visibility: 10 or more miles (16+ km)
Ceiling: at least 12,000 feet AGL
Clouds: sky clear below 12,000 feet AGL
Present Weather: no significant weather observed at this time
KGNV 181653Z 29003KT 10SM CLR 23/15 A3021 RMK AO2 SLP230 T02330150

Conditions at: KGNV observed 18 November 2018  15:53 UTC
Temperature: 22.8°C (73°F)
Dewpoint: 15.0°C (59°F) [RH = 61%]
Pressure (altimeter): 30.23 inches Hg (1023.8 mb)
[Sea-level pressure: 1023.6 mb]
Winds: from the N (360 degrees) at 8 MPH (7 knots; 3.6 m/s)
Visibility: 10 or more miles (16+ km)
Ceiling: at least 12,000 feet AGL
Clouds: sky clear below 12,000 feet AGL
Present Weather: no significant weather observed at this time
KGNV 181553Z 36007KT 10SM CLR 23/15 A3023 RMK AO2 SLP236 T02280150

Conditions at: KGNV observed 18 November 2018  14:53 UTC
Temperature: 20.0°C (68°F)
Dewpoint: 15.0°C (59°F) [RH = 73%]
Pressure (altimeter): 30.24 inches Hg (1024.1 mb)
[Sea-level pressure: 1023.9 mb]
Winds: from the NE (50 degrees) at 8 MPH (7 knots; 3.6 m/s)
Visibility: 10 or more miles (16+ km)
Ceiling: at least 12,000 feet AGL
Clouds: sky clear below 12,000 feet AGL
Present Weather: no significant weather observed at this time
KGNV 181453Z 05007KT 10SM CLR 20/15 A3024 RMK AO2 SLP239 T02000150 51010

Conditions at: KGNV observed 18 November 2018  13:53 UTC
Temperature: 17.8°C (64°F)
Dewpoint: 14.4°C (58°F) [RH = 80%]
Pressure (altimeter): 30.23 inches Hg (1023.8 mb)
[Sea-level pressure: 1023.6 mb]
Winds: from the N (10 degrees) at 6 MPH (5 knots; 2.6 m/s)
Visibility: 10 or more miles (16+ km)
Ceiling: at least 12,000 feet AGL
Clouds: sky clear below 12,000 feet AGL
Present Weather: no significant weather observed at this time
KGNV 181353Z 01005KT 10SM CLR 18/14 A3023 RMK AO2 SLP236 T01780144

Conditions at: KGNV observed 18 November 2018  12:53 UTC
Temperature: 14.4°C (58°F)
Dewpoint: 12.8°C (55°F) [RH = 90%]
Pressure (altimeter): 30.22 inches Hg (1023.5 mb)
[Sea-level pressure: 1023.2 mb]
Winds: from the N (350 degrees) at 3 MPH (3 knots; 1.6 m/s)
Visibility: 9 miles (14 km)
Ceiling: at least 12,000 feet AGL
Clouds: few clouds at 4700 feet AGL
scattered clouds at 5500 feet AGL
Present Weather: no significant weather observed at this time
KGNV 181253Z 35003KT 9SM FEW047 SCT055 14/13 A3022 RMK AO2 SLP232 T01440128

Conditions at: KGNV observed 18 November 2018  11:53 UTC
Temperature: 12.8°C (55°F)
Dewpoint: 11.7°C (53°F) [RH = 93%]
Pressure (altimeter): 30.21 inches Hg (1023.1 mb)
[Sea-level pressure: 1022.9 mb]
Winds: calm
Visibility: 8 miles (13 km)
Ceiling: at least 12,000 feet AGL
Clouds: sky clear below 12,000 feet AGL
Present Weather: no significant weather observed at this time
KGNV 181153Z 00000KT 8SM CLR 13/12 A3021 RMK AO2 SLP229 T01280117 10128 20106 53010

Conditions at: KGNV observed 18 November 2018  10:53 UTC
Temperature: 12.8°C (55°F)
Dewpoint: 11.7°C (53°F) [RH = 93%]
Pressure (altimeter): 30.19 inches Hg (1022.4 mb)
[Sea-level pressure: 1022.3 mb]
Winds: calm
Visibility: 8 miles (13 km)
Ceiling: at least 12,000 feet AGL
Clouds: sky clear below 12,000 feet AGL
Present Weather: automated observation with no human augmentation;
there may or may not be significant weather present at this time
KGNV 181053Z AUTO 00000KT 8SM CLR 13/12 A3019 RMK AO2 SLP223 T01280117

Conditions at: KGNV observed 18 November 2018  09:53 UTC
Temperature: 12.2°C (54°F)
Dewpoint: 11.1°C (52°F) [RH = 93%]
Pressure (altimeter): 30.18 inches Hg (1022.1 mb)
[Sea-level pressure: 1021.8 mb]
Winds: calm
Visibility: 9 miles (14 km)
Ceiling: at least 12,000 feet AGL
Clouds: sky clear below 12,000 feet AGL
Present Weather: automated observation with no human augmentation;
there may or may not be significant weather present at this time
KGNV 180953Z AUTO 00000KT 9SM CLR 12/11 A3018 RMK AO2 SLP218 T01220111

Conditions at: KGNV observed 18 November 2018  08:53 UTC
Temperature: 12.2°C (54°F)
Dewpoint: 11.1°C (52°F) [RH = 93%]
Pressure (altimeter): 30.18 inches Hg (1022.1 mb)
[Sea-level pressure: 1021.9 mb]
Winds: from the N (10 degrees) at 5 MPH (4 knots; 2.1 m/s)
Visibility: 10 or more miles (16+ km)
Ceiling: at least 12,000 feet AGL
Clouds: sky clear below 12,000 feet AGL
Present Weather: automated observation with no human augmentation;
there may or may not be significant weather present at this time
KGNV 180853Z AUTO 01004KT 10SM CLR 12/11 A3018 RMK AO2 SLP219 T01220111 56005

Conditions at: KGNV observed 18 November 2018  07:53 UTC
Temperature: 10.6°C (51°F)
Dewpoint: 9.4°C (49°F) [RH = 92%]
Pressure (altimeter): 30.18 inches Hg (1022.1 mb)
[Sea-level pressure: 1022.0 mb]
Winds: calm
Visibility: 8 miles (13 km)
Ceiling: at least 12,000 feet AGL
Clouds: sky clear below 12,000 feet AGL
Present Weather: automated observation with no human augmentation;
there may or may not be significant weather present at this time
KGNV 180753Z AUTO 00000KT 8SM CLR 11/09 A3018 RMK AO2 SLP220 T01060094

Conditions at: KGNV observed 18 November 2018  06:53 UTC
Temperature: 11.7°C (53°F)
Dewpoint: 10.0°C (50°F) [RH = 89%]
Pressure (altimeter): 30.18 inches Hg (1022.1 mb)
[Sea-level pressure: 1022.0 mb]
Winds: from the NNW (330 degrees) at 3 MPH (3 knots; 1.6 m/s)
Visibility: 10 or more miles (16+ km)
Ceiling: at least 12,000 feet AGL
Clouds: sky clear below 12,000 feet AGL
Present Weather: automated observation with no human augmentation;
there may or may not be significant weather present at this time
KGNV 180653Z AUTO 33003KT 10SM CLR 12/10 A3018 RMK AO2 SLP220 T01170100

Conditions at: KGNV observed 18 November 2018  05:53 UTC
Temperature: 11.7°C (53°F)
Dewpoint: 10.0°C (50°F) [RH = 89%]
Pressure (altimeter): 30.20 inches Hg (1022.8 mb)
[Sea-level pressure: 1022.4 mb]
Winds: calm
Visibility: 10 or more miles (16+ km)
Ceiling: at least 12,000 feet AGL
Clouds: sky clear below 12,000 feet AGL
Present Weather: automated observation with no human augmentation;
there may or may not be significant weather present at this time
KGNV 180553Z AUTO 00000KT 10SM CLR 12/10 A3020 RMK AO2 SLP224 T01170100 10150 20094 58002

Conditions at: KGNV observed 18 November 2018  04:53 UTC
Temperature: 10.0°C (50°F)
Dewpoint: 8.3°C (47°F) [RH = 89%]
Pressure (altimeter): 30.20 inches Hg (1022.8 mb)
[Sea-level pressure: 1022.7 mb]
Winds: calm
Visibility: 9 miles (14 km)
Ceiling: at least 12,000 feet AGL
Clouds: sky clear below 12,000 feet AGL
Present Weather: automated observation with no human augmentation;
there may or may not be significant weather present at this time
KGNV 180453Z AUTO 00000KT 9SM CLR 10/08 A3020 RMK AO2 SLP227 T01000083 402220028

Conditions at: KGNV observed 18 November 2018  03:53 UTC
Temperature: 10.0°C (50°F)
Dewpoint: 8.3°C (47°F) [RH = 89%]
Pressure (altimeter): 30.20 inches Hg (1022.8 mb)
[Sea-level pressure: 1022.7 mb]
Winds: calm
Visibility: 10 or more miles (16+ km)
Ceiling: at least 12,000 feet AGL
Clouds: sky clear below 12,000 feet AGL
Present Weather: automated observation with no human augmentation;
there may or may not be significant weather present at this time
KGNV 180353Z AUTO 00000KT 10SM CLR 10/08 A3020 RMK AO2 SLP227 T01000083

Conditions at: KGNV observed 18 November 2018  02:53 UTC
Temperature: 12.2°C (54°F)
Dewpoint: 8.9°C (48°F) [RH = 80%]
Pressure (altimeter): 30.20 inches Hg (1022.8 mb)
[Sea-level pressure: 1022.8 mb]
Winds: calm
Visibility: 8 miles (13 km)
Ceiling: at least 12,000 feet AGL
Clouds: sky clear below 12,000 feet AGL
Present Weather: no significant weather observed at this time
KGNV 180253Z 00000KT 8SM CLR 12/09 A3020 RMK AO2 SLP228 T01220089 50002

Conditions at: KGNV observed 18 November 2018  01:53 UTC
Temperature: 13.9°C (57°F)
Dewpoint: 9.4°C (49°F) [RH = 74%]
Pressure (altimeter): 30.21 inches Hg (1023.1 mb)
[Sea-level pressure: 1023.0 mb]
Winds: calm
Visibility: 10 or more miles (16+ km)
Ceiling: at least 12,000 feet AGL
Clouds: sky clear below 12,000 feet AGL
Present Weather: no significant weather observed at this time
KGNV 180153Z 00000KT 10SM CLR 14/09 A3021 RMK AO2 SLP230 T01390094

Conditions at: KGNV observed 18 November 2018  00:53 UTC
Temperature: 15.0°C (59°F)
Dewpoint: 9.4°C (49°F) [RH = 69%]
Pressure (altimeter): 30.20 inches Hg (1022.8 mb)
[Sea-level pressure: 1022.5 mb]
Winds: from the N (10 degrees) at 5 MPH (4 knots; 2.1 m/s)
Visibility: 10 or more miles (16+ km)
Ceiling: at least 12,000 feet AGL
Clouds: sky clear below 12,000 feet AGL
Present Weather: no significant weather observed at this time
KGNV 180053Z 01004KT 10SM CLR 15/09 A3020 RMK AO2 SLP225 T01500094

Conditions at: KGNV observed 17 November 2018  23:53 UTC
Temperature: 14.4°C (58°F)
Dewpoint: 10.0°C (50°F) [RH = 75%]
Pressure (altimeter): 30.20 inches Hg (1022.8 mb)
[Sea-level pressure: 1022.6 mb]
Winds: calm
Visibility: 10 or more miles (16+ km)
Ceiling: at least 12,000 feet AGL
Clouds: sky clear below 12,000 feet AGL
Present Weather: no significant weather observed at this time
KGNV 172353Z 00000KT 10SM CLR 14/10 A3020 RMK AO2 SLP226 T01440100 10222 20139 51006

Conditions at: KGNV observed 17 November 2018  22:53 UTC
Temperature: 16.7°C (62°F)
Dewpoint: 10.0°C (50°F) [RH = 65%]
Pressure (altimeter): 30.19 inches Hg (1022.4 mb)
[Sea-level pressure: 1022.6 mb]
Winds: from the N (350 degrees) at 5 MPH (4 knots; 2.1 m/s)
Visibility: 10 or more miles (16+ km)
Ceiling: at least 12,000 feet AGL
Clouds: sky clear below 12,000 feet AGL
Present Weather: no significant weather observed at this time
KGNV 172253Z 35004KT 10SM CLR 17/10 A3019 RMK AO2 SLP226 T01670100

Conditions at: KGNV observed 17 November 2018  21:53 UTC
Temperature: 20.6°C (69°F)
Dewpoint: 8.3°C (47°F) [RH = 45%]
Pressure (altimeter): 30.18 inches Hg (1022.1 mb)
[Sea-level pressure: 1022.1 mb]
Winds: from the NNE (20 degrees) at 3 MPH (3 knots; 1.6 m/s)
Visibility: 10 or more miles (16+ km)
Ceiling: at least 12,000 feet AGL
Clouds: sky clear below 12,000 feet AGL
Present Weather: no significant weather observed at this time
KGNV 172153Z 02003KT 10SM CLR 21/08 A3018 RMK AO2 SLP221 T02060083

Conditions at: KGNV observed 17 November 2018  20:53 UTC
Temperature: 21.7°C (71°F)
Dewpoint: 7.8°C (46°F) [RH = 41%]
Pressure (altimeter): 30.18 inches Hg (1022.1 mb)
[Sea-level pressure: 1021.9 mb]
Winds: from the NE (50 degrees) at 6 MPH (5 knots; 2.6 m/s)
Visibility: 10 or more miles (16+ km)
Ceiling: at least 12,000 feet AGL
Clouds: sky clear below 12,000 feet AGL
Present Weather: no significant weather observed at this time
KGNV 172053Z 05005KT 10SM CLR 22/08 A3018 RMK AO2 SLP219 T02170078 55005

Conditions at: KGNV observed 17 November 2018  19:53 UTC
Temperature: 21.7°C (71°F)
Dewpoint: 8.3°C (47°F) [RH = 42%]
Pressure (altimeter): 30.17 inches Hg (1021.8 mb)
[Sea-level pressure: 1021.7 mb]
Winds: variable direction winds at 5 MPH (4 knots; 2.1 m/s)
Visibility: 10 or more miles (16+ km)
Ceiling: at least 12,000 feet AGL
Clouds: sky clear below 12,000 feet AGL
Present Weather: no significant weather observed at this time
KGNV 171953Z VRB04KT 10SM CLR 22/08 A3017 RMK AO2 SLP217 T02170083

Conditions at: KGNV observed 17 November 2018  18:53 UTC
Temperature: 21.1°C (70°F)
Dewpoint: 9.4°C (49°F) [RH = 47%]
Pressure (altimeter): 30.17 inches Hg (1021.8 mb)
[Sea-level pressure: 1021.8 mb]
Winds: from the N (10 degrees) at 5 MPH (4 knots; 2.1 m/s)
Visibility: 10 or more miles (16+ km)
Ceiling: at least 12,000 feet AGL
Clouds: sky clear below 12,000 feet AGL
Present Weather: no significant weather observed at this time
KGNV 171853Z 01004KT 10SM CLR 21/09 A3017 RMK AO2 SLP218 T02110094

Conditions at: KGNV observed 17 November 2018  17:53 UTC
Temperature: 20.0°C (68°F)
Dewpoint: 8.9°C (48°F) [RH = 49%]
Pressure (altimeter): 30.19 inches Hg (1022.4 mb)
[Sea-level pressure: 1022.3 mb]
Winds: from the ESE (120 degrees) at 8 MPH (7 knots; 3.6 m/s)
Visibility: 10 or more miles (16+ km)
Ceiling: at least 12,000 feet AGL
Clouds: sky clear below 12,000 feet AGL
Present Weather: no significant weather observed at this time
KGNV 171753Z 12007KT 10SM CLR 20/09 A3019 RMK AO2 SLP223 T02000089 10206 20028 58024

Conditions at: KGNV observed 17 November 2018  16:53 UTC
Temperature: 18.9°C (66°F)
Dewpoint: 9.4°C (49°F) [RH = 54%]
Pressure (altimeter): 30.23 inches Hg (1023.8 mb)
[Sea-level pressure: 1023.7 mb]
Winds: from the ENE (70 degrees) at 5 MPH (4 knots; 2.1 m/s)
Visibility: 10 or more miles (16+ km)
Ceiling: at least 12,000 feet AGL
Clouds: sky clear below 12,000 feet AGL
Present Weather: no significant weather observed at this time
KGNV 171653Z 07004KT 10SM CLR 19/09 A3023 RMK AO2 SLP237 T01890094

Conditions at: KGNV observed 17 November 2018  15:53 UTC
Temperature: 17.2°C (63°F)
Dewpoint: 7.8°C (46°F) [RH = 54%]
Pressure (altimeter): 30.25 inches Hg (1024.5 mb)
[Sea-level pressure: 1024.3 mb]
Winds: from the NE (40 degrees) at 5 MPH (4 knots; 2.1 m/s)
Visibility: 10 or more miles (16+ km)
Ceiling: at least 12,000 feet AGL
Clouds: sky clear below 12,000 feet AGL
Present Weather: no significant weather observed at this time
KGNV 171553Z 04004KT 10SM CLR 17/08 A3025 RMK AO2 SLP243 T01720078

Conditions at: KGNV observed 17 November 2018  14:53 UTC
Temperature: 14.4°C (58°F)
Dewpoint: 6.1°C (43°F) [RH = 57%]
Pressure (altimeter): 30.26 inches Hg (1024.8 mb)
[Sea-level pressure: 1024.8 mb]
Winds: from the NE (50 degrees) at 7 MPH (6 knots; 3.1 m/s)
Visibility: 10 or more miles (16+ km)
Ceiling: at least 12,000 feet AGL
Clouds: sky clear below 12,000 feet AGL
Present Weather: no significant weather observed at this time
KGNV 171453Z 05006KT 10SM CLR 14/06 A3026 RMK AO2 SLP248 T01440061 50007

Conditions at: KGNV observed 17 November 2018  13:53 UTC
Temperature: 11.1°C (52°F)
Dewpoint: 6.1°C (43°F) [RH = 71%]
Pressure (altimeter): 30.27 inches Hg (1025.1 mb)
[Sea-level pressure: 1025.1 mb]
Winds: from the N (10 degrees) at 6 MPH (5 knots; 2.6 m/s)
Visibility: 10 or more miles (16+ km)
Ceiling: at least 12,000 feet AGL
Clouds: sky clear below 12,000 feet AGL
Present Weather: no significant weather observed at this time
KGNV 171353Z 01005KT 10SM CLR 11/06 A3027 RMK AO2 SLP251 T01110061

Conditions at: KGNV observed 17 November 2018  12:53 UTC
Temperature: 7.2°C (45°F)
Dewpoint: 3.9°C (39°F) [RH = 80%]
Pressure (altimeter): 30.26 inches Hg (1024.8 mb)
[Sea-level pressure: 1024.8 mb]
Winds: from the N (350 degrees) at 5 MPH (4 knots; 2.1 m/s)
Visibility: 10 or more miles (16+ km)
Ceiling: at least 12,000 feet AGL
Clouds: sky clear below 12,000 feet AGL
Present Weather: no significant weather observed at this time
KGNV 171253Z 35004KT 10SM CLR 07/04 A3026 RMK AO2 SLP248 T00720039

Conditions at: KGNV observed 17 November 2018  11:53 UTC
Temperature: 2.8°C (37°F)
Dewpoint: 1.7°C (35°F) [RH = 92%]
Pressure (altimeter): 30.24 inches Hg (1024.1 mb)
[Sea-level pressure: 1024.2 mb]
Winds: calm
Visibility: 10 or more miles (16+ km)
Ceiling: at least 12,000 feet AGL
Clouds: sky clear below 12,000 feet AGL
Present Weather: no significant weather observed at this time
KGNV 171153Z 00000KT 10SM CLR 03/02 A3024 RMK AO2 SLP242 T00280017 10061 20028 53015

Conditions at: KGNV observed 17 November 2018  11:42 UTC
Temperature: 2.8°C (37°F)
Dewpoint: 1.7°C (35°F) [RH = 92%]
Pressure (altimeter): 30.24 inches Hg (1024.1 mb)
Winds: calm
Visibility: 10 or more miles (16+ km)
Ceiling: at least 12,000 feet AGL
Clouds: sky clear below 12,000 feet AGL
Present Weather: no significant weather observed at this time
KGNV 171142Z 00000KT 10SM CLR 03/02 A3024 RMK AO2 T00280017